createdAt,value
2022-11-09T00:00:16.576Z,0
2022-11-09T00:02:16.727Z,0
2022-11-09T00:04:17.625Z,0
2022-11-09T00:06:14.904Z,0
2022-11-09T00:08:19.876Z,0
2022-11-09T00:10:16.620Z,0
2022-11-09T00:12:16.476Z,0
2022-11-09T00:14:19.982Z,0
2022-11-09T00:16:16.413Z,0
2022-11-09T00:18:15.934Z,0
2022-11-09T00:20:16.433Z,0
2022-11-09T00:22:23.223Z,0
2022-11-09T00:24:19.387Z,0
2022-11-09T00:26:16.274Z,0
2022-11-09T00:28:16.345Z,0
2022-11-09T00:30:16.437Z,0
2022-11-09T00:32:16.348Z,0
2022-11-09T00:34:16.494Z,0
2022-11-09T00:36:16.671Z,0
2022-11-09T00:38:16.338Z,0
2022-11-09T00:40:16.481Z,0
2022-11-09T00:42:19.788Z,0
2022-11-09T00:44:16.611Z,0
2022-11-09T00:46:19.922Z,0
2022-11-09T00:48:16.197Z,0
2022-11-09T00:50:19.418Z,0
2022-11-09T00:52:23.163Z,1
2022-11-09T00:54:16.342Z,0
2022-11-09T00:58:16.567Z,1
2022-11-09T01:00:16.521Z,1
2022-11-09T01:02:27.051Z,1
2022-11-09T01:04:16.354Z,1
2022-11-09T01:06:16.055Z,1
2022-11-09T01:08:14.912Z,0
2022-11-09T01:10:19.663Z,0
2022-11-09T01:12:16.572Z,0
2022-11-09T01:14:16.472Z,0
2022-11-09T01:16:16.365Z,0
2022-11-09T01:18:19.552Z,0
2022-11-09T01:20:16.291Z,0
2022-11-09T01:22:16.364Z,0
2022-11-09T01:24:16.519Z,1
2022-11-09T01:26:16.384Z,0
2022-11-09T01:28:19.778Z,0
2022-11-09T01:30:16.417Z,0
2022-11-09T01:34:16.459Z,0
2022-11-09T01:36:23.100Z,0
2022-11-09T01:38:16.575Z,0
2022-11-09T01:40:16.497Z,0
2022-11-09T01:42:22.698Z,0
2022-11-09T01:44:16.657Z,0
2022-11-09T01:46:16.469Z,0
2022-11-09T01:48:16.228Z,0
2022-11-09T01:50:18.075Z,0
2022-11-09T01:52:16.354Z,0
2022-11-09T01:54:16.287Z,0
2022-11-09T01:56:16.926Z,0
2022-11-09T01:58:22.602Z,0
2022-11-09T02:00:16.566Z,1
2022-11-09T02:02:16.392Z,1
2022-11-09T02:04:19.790Z,1
2022-11-09T02:06:15.210Z,1
2022-11-09T02:08:18.066Z,1
2022-11-09T02:10:16.129Z,1
2022-11-09T02:12:16.639Z,1
2022-11-09T02:14:21.398Z,1
2022-11-09T02:16:16.220Z,1
2022-11-09T02:18:16.613Z,1
2022-11-09T02:20:15.981Z,1
2022-11-09T02:22:14.887Z,1
2022-11-09T02:24:19.898Z,1
2022-11-09T02:26:19.545Z,1
2022-11-09T02:28:15.968Z,1
2022-11-09T02:30:19.830Z,1
2022-11-09T02:32:16.549Z,1
2022-11-09T02:34:21.440Z,1
2022-11-09T02:36:16.269Z,1
2022-11-09T02:38:23.230Z,1
2022-11-09T02:40:16.623Z,1
2022-11-09T02:42:20.038Z,1
2022-11-09T02:44:16.352Z,1
2022-11-09T02:46:16.507Z,1
2022-11-09T02:48:19.955Z,1
2022-11-09T02:50:16.402Z,1
2022-11-09T02:52:16.285Z,1
2022-11-09T02:54:16.001Z,1
2022-11-09T02:56:23.938Z,1
2022-11-09T02:58:16.310Z,1
2022-11-09T03:00:16.406Z,1
2022-11-09T03:02:19.086Z,1
2022-11-09T03:04:16.024Z,1
2022-11-09T03:06:16.562Z,1
2022-11-09T03:08:23.133Z,1
2022-11-09T03:10:15.969Z,1
2022-11-09T03:14:16.020Z,1
2022-11-09T03:16:16.378Z,1
2022-11-09T03:18:17.672Z,1
2022-11-09T03:20:16.689Z,1
2022-11-09T03:22:18.098Z,1
2022-11-09T03:24:19.540Z,1
2022-11-09T03:26:16.375Z,1
2022-11-09T03:28:17.677Z,1
2022-11-09T03:30:16.587Z,1
2022-11-09T03:32:16.581Z,1
2022-11-09T03:34:19.543Z,1
2022-11-09T03:38:19.640Z,1
2022-11-09T03:40:16.299Z,1
2022-11-09T03:42:14.802Z,1
2022-11-09T03:44:24.064Z,1
2022-11-09T03:46:16.705Z,1
2022-11-09T03:50:15.040Z,1
2022-11-09T03:52:16.266Z,1
2022-11-09T03:54:19.946Z,1
2022-11-09T03:56:16.424Z,1
2022-11-09T03:58:16.574Z,1
2022-11-09T04:00:19.685Z,1
2022-11-09T04:02:16.616Z,1
2022-11-09T04:04:16.615Z,1
2022-11-09T04:06:16.574Z,1
2022-11-09T04:08:16.006Z,1
2022-11-09T04:10:16.404Z,1
2022-11-09T04:12:16.447Z,1
2022-11-09T04:14:19.130Z,1
2022-11-09T04:16:16.455Z,1
2022-11-09T04:18:25.310Z,1
2022-11-09T04:20:16.850Z,1
2022-11-09T04:22:20.706Z,1
2022-11-09T04:24:19.933Z,1
2022-11-09T04:26:16.450Z,1
2022-11-09T04:28:29.986Z,1
2022-11-09T04:30:23.027Z,1
2022-11-09T04:32:23.111Z,1
2022-11-09T04:34:16.539Z,1
2022-11-09T04:36:19.500Z,1
2022-11-09T04:38:16.271Z,1
2022-11-09T04:40:16.347Z,1
2022-11-09T04:44:16.472Z,1
2022-11-09T04:46:16.550Z,1
2022-11-09T04:48:15.948Z,1
2022-11-09T04:50:21.276Z,1
2022-11-09T04:52:22.788Z,1
2022-11-09T04:54:19.666Z,1
2022-11-09T04:56:16.407Z,1
2022-11-09T04:58:18.882Z,1
2022-11-09T05:00:16.846Z,1
2022-11-09T05:02:16.727Z,1
2022-11-09T05:06:19.528Z,1
2022-11-09T05:08:16.308Z,1
2022-11-09T05:10:16.403Z,1
2022-11-09T05:12:16.520Z,1
2022-11-09T05:14:16.408Z,1
2022-11-09T05:16:16.342Z,1
2022-11-09T05:18:16.721Z,1
2022-11-09T05:20:16.550Z,1
2022-11-09T05:22:19.122Z,1
2022-11-09T05:24:19.583Z,1
2022-11-09T05:26:16.369Z,1
2022-11-09T05:28:22.319Z,0
2022-11-09T05:30:16.317Z,0
2022-11-09T05:32:19.958Z,0
2022-11-09T05:34:19.906Z,0
2022-11-09T05:36:16.129Z,0.1
2022-11-09T05:38:16.666Z,0.2
2022-11-09T05:40:16.517Z,0.3
2022-11-09T05:42:16.306Z,0.4
2022-11-09T05:44:21.297Z,0.6
2022-11-09T05:46:16.395Z,0.8
2022-11-09T05:48:19.169Z,1.2
2022-11-09T05:50:16.502Z,1.7
2022-11-09T05:52:19.619Z,2.7
2022-11-09T05:54:16.564Z,4.5
2022-11-09T05:56:20.013Z,7.4
2022-11-09T05:58:15.936Z,10.5
2022-11-09T06:00:16.542Z,14.9
2022-11-09T06:02:16.364Z,21.1
2022-11-09T06:04:21.544Z,31.5
2022-11-09T06:06:16.511Z,40.4
2022-11-09T06:08:16.791Z,49.4
2022-11-09T06:10:16.762Z,60.3
2022-11-09T06:12:21.876Z,77.5
2022-11-09T06:14:16.444Z,104.6
2022-11-09T06:16:16.681Z,127.7
2022-11-09T06:18:17.749Z,164
2022-11-09T06:20:15.944Z,200.3
2022-11-09T06:22:16.396Z,244.7
2022-11-09T06:24:22.021Z,284.3
2022-11-09T06:26:19.766Z,330.3
2022-11-09T06:28:16.370Z,347.2
2022-11-09T06:30:16.108Z,365
2022-11-09T06:32:20.081Z,383.8
2022-11-09T06:34:16.780Z,383.8
2022-11-09T06:38:16.618Z,347.2
2022-11-09T06:40:19.279Z,284.3
2022-11-09T06:42:20.045Z,232.8
2022-11-09T06:44:19.982Z,200.3
2022-11-09T06:46:19.569Z,181.3
2022-11-09T06:48:16.304Z,181.3
2022-11-09T06:52:16.760Z,221.4
2022-11-09T06:54:16.438Z,270.4
2022-11-09T06:56:16.813Z,347.2
2022-11-09T06:58:16.416Z,424.1
2022-11-09T07:00:19.938Z,518
2022-11-09T07:02:19.093Z,632.7
2022-11-09T07:04:16.422Z,772.8
2022-11-09T07:06:19.638Z,943.9
2022-11-09T07:08:18.966Z,1212
2022-11-09T07:16:56.789Z,2100.6
2022-11-09T07:25:46.210Z,1808
2022-11-09T07:30:24.549Z,1719.9
2022-11-09T07:34:03.634Z,2100.6
2022-11-09T07:36:10.556Z,2100.6
2022-11-09T07:40:55.547Z,1808
2022-11-09T07:45:04.119Z,1480.3
2022-11-09T07:47:48.022Z,1274.1
2022-11-09T07:52:47.207Z,992.3
2022-11-09T07:54:51.922Z,897.8
2022-11-09T07:57:53.100Z,897.8
2022-11-09T08:01:44.332Z,1043.1
2022-11-09T08:07:49.731Z,1408.1
2022-11-09T08:08:54.007Z,1636
2022-11-09T08:12:51.695Z,1998.2
2022-11-09T08:15:18.285Z,1808
2022-11-09T08:18:37.712Z,1636
2022-11-09T08:22:02.806Z,1636
2022-11-09T08:23:08.387Z,1719.9
2022-11-09T08:24:05.600Z,1808
2022-11-09T08:28:15.193Z,2208.3
2022-11-09T08:31:58.372Z,3641
2022-11-09T08:34:01.638Z,4675.1
2022-11-09T08:38:47.820Z,8103.1
2022-11-09T08:40:47.883Z,6974.4
2022-11-09T08:44:30.520Z,9414.4
2022-11-09T08:51:54.341Z,44355.9
2022-11-09T08:54:24.325Z,62944
2022-11-09T08:59:46.465Z,49020.8
2022-11-09T09:01:54.429Z,14764.8
2022-11-09T09:07:41.768Z,42192.6
2022-11-09T09:13:43.235Z,56954
2022-11-09T09:16:59.184Z,42192.6
2022-11-09T09:18:19.217Z,49020.8
2022-11-09T09:22:52.084Z,14044.7
2022-11-09T09:28:37.922Z,4230.2
2022-11-09T09:30:40.637Z,3641
2022-11-09T09:34:31.730Z,3463.4
2022-11-09T09:39:26.697Z,3294.5
2022-11-09T09:42:47.235Z,3294.5
2022-11-09T09:44:31.741Z,3463.4
2022-11-09T09:47:01.544Z,3641
2022-11-09T09:50:39.149Z,4447.1
2022-11-09T09:52:34.782Z,4447.1
2022-11-09T09:59:27.282Z,4447.1
2022-11-09T10:01:26.244Z,4023.9
2022-11-09T10:05:28.532Z,4230.2
2022-11-09T10:12:31.764Z,15521.8
2022-11-09T10:15:02.923Z,12088.4
2022-11-09T10:19:31.703Z,4914.8
2022-11-09T10:24:11.512Z,4023.9
2022-11-09T10:26:57.499Z,4230.2
2022-11-09T10:34:17.525Z,6310.7
2022-11-09T10:37:47.705Z,7707.9
2022-11-09T10:40:40.468Z,14044.7
2022-11-09T10:44:57.267Z,7332
2022-11-09T10:49:46.313Z,7707.9
2022-11-09T10:54:33.260Z,9414.4
2022-11-09T11:02:32.223Z,25591.1
2022-11-09T11:11:31.960Z,13359.7
2022-11-09T11:13:15.531Z,26903.2
2022-11-09T11:17:34.216Z,18958.4
2022-11-09T11:21:35.977Z,9414.4
2022-11-09T11:25:03.643Z,9897.1
2022-11-09T11:27:47.458Z,10938
2022-11-09T11:32:24.572Z,13359.7
2022-11-09T11:37:03.295Z,11498.8
2022-11-09T11:39:29.578Z,12708.2
2022-11-09T11:44:27.684Z,5166.8
2022-11-09T11:47:02.191Z,4230.2
2022-11-09T11:54:29.027Z,4023.9
2022-11-09T11:54:32.574Z,4023.9
2022-11-09T11:56:25.984Z,4023.9
2022-11-09T12:04:26.873Z,4675.1
2022-11-09T12:04:30.925Z,4447.1
2022-11-09T12:07:47.690Z,4230.2
2022-11-09T12:12:10.172Z,4447.1
2022-11-09T12:16:26.210Z,4447.1
2022-11-09T12:21:10.241Z,3294.5
2022-11-09T12:24:28.463Z,2697.3
2022-11-09T12:26:41.445Z,2697.3
2022-11-09T12:29:58.501Z,2565.7
2022-11-09T12:34:40.105Z,2321.6
2022-11-09T12:40:13.492Z,2981
2022-11-09T12:42:55.154Z,2835.6
2022-11-09T12:46:32.058Z,2565.7
2022-11-09T12:48:30.075Z,2440.6
2022-11-09T12:50:41.616Z,2208.3
2022-11-09T12:52:49.427Z,2100.6
2022-11-09T12:58:53.250Z,1998.2
2022-11-09T12:59:58.456Z,2100.6
2022-11-09T13:04:36.944Z,2321.6
2022-11-09T13:08:14.132Z,2321.6
2022-11-09T13:10:32.327Z,2208.3
2022-11-09T13:16:11.080Z,1636
2022-11-09T13:20:59.867Z,1636
2022-11-09T13:21:58.978Z,1636
2022-11-09T13:29:55.263Z,1900.7
2022-11-09T13:31:57.516Z,2440.6
2022-11-09T13:34:48.403Z,4230.2
2022-11-09T13:41:30.512Z,2981
2022-11-09T13:43:46.151Z,2565.7
2022-11-09T13:47:23.740Z,2565.7
2022-11-09T13:51:09.070Z,2565.7
2022-11-09T13:52:42.734Z,2440.6
2022-11-09T13:54:46.480Z,2440.6
2022-11-09T14:00:15.354Z,1808
2022-11-09T14:03:14.240Z,1408.1
2022-11-09T14:07:14.952Z,1212
2022-11-09T14:09:19.947Z,1043.1
2022-11-09T14:15:17.826Z,897.8
2022-11-09T14:27:43.752Z,735.1
2022-11-09T14:27:47.186Z,601.8
2022-11-09T14:33:52.290Z,572.5
2022-11-09T14:37:14.353Z,601.8
2022-11-09T14:43:59.955Z,445.9
2022-11-09T14:45:37.432Z,403.4
2022-11-09T14:50:24.237Z,365
2022-11-09T14:54:56.457Z,298.9
2022-11-09T14:59:37.137Z,298.9
2022-11-09T15:01:31.219Z,298.9
2022-11-09T15:03:34.076Z,314.2
2022-11-09T15:09:39.869Z,210.6
2022-11-09T15:16:27.431Z,115.6
2022-11-09T15:19:49.422Z,90
2022-11-09T15:21:46.258Z,77.5
2022-11-09T15:23:46.179Z,70.1
2022-11-09T15:25:46.221Z,60.3
2022-11-09T15:29:43.378Z,47
2022-11-09T15:33:17.991Z,34.8
2022-11-09T15:39:41.518Z,23.3
2022-11-09T15:46:07.972Z,14.9
2022-11-09T15:46:44.322Z,12.8
2022-11-09T15:48:11.071Z,11
2022-11-09T15:55:03.883Z,6
2022-11-09T15:57:45.949Z,4.1
2022-11-09T15:59:51.616Z,2.6
2022-11-09T16:04:04.520Z,1.1
2022-11-09T16:06:01.446Z,0.8
2022-11-09T16:08:09.298Z,0.5
2022-11-09T16:10:44.769Z,0.4
2022-11-09T16:14:39.431Z,0.2
2022-11-09T16:21:32.765Z,0
2022-11-09T16:26:27.049Z,0
2022-11-09T16:32:52.147Z,1
2022-11-09T16:32:55.232Z,1
2022-11-09T16:35:08.688Z,1
2022-11-09T16:36:57.750Z,1
2022-11-09T16:41:34.146Z,1
2022-11-09T16:43:28.146Z,1
2022-11-09T16:46:34.176Z,1
2022-11-09T16:49:48.744Z,1
2022-11-09T16:54:52.121Z,1
2022-11-09T16:57:16.513Z,1
2022-11-09T16:58:50.090Z,1
2022-11-09T17:02:26.531Z,1
2022-11-09T17:06:04.982Z,1
2022-11-09T17:09:49.692Z,1
2022-11-09T17:11:51.075Z,1
2022-11-09T17:13:50.462Z,1
2022-11-09T17:16:26.459Z,1
2022-11-09T17:18:27.046Z,1
2022-11-09T17:20:41.875Z,1
2022-11-09T17:22:28.596Z,1
2022-11-09T17:24:47.477Z,1
2022-11-09T17:27:06.817Z,1
2022-11-09T17:30:56.592Z,1
2022-11-09T17:32:55.904Z,1
2022-11-09T17:37:03.440Z,1
2022-11-09T17:39:25.917Z,1
2022-11-09T17:41:25.824Z,1
2022-11-09T17:43:28.361Z,1
2022-11-09T17:45:25.335Z,1
2022-11-09T17:47:25.224Z,1
2022-11-09T17:49:28.660Z,1
2022-11-09T17:51:28.410Z,1
2022-11-09T17:53:25.209Z,1
2022-11-09T17:55:28.394Z,1
2022-11-09T17:57:25.450Z,1
2022-11-09T17:59:25.455Z,1
2022-11-09T18:01:25.207Z,1
2022-11-09T18:05:28.771Z,1
2022-11-09T18:07:25.743Z,1
2022-11-09T18:09:40.635Z,1
2022-11-09T18:11:25.248Z,1
2022-11-09T18:17:25.367Z,1
2022-11-09T18:19:25.225Z,1
2022-11-09T18:21:25.181Z,1
2022-11-09T18:23:28.558Z,1
2022-11-09T18:25:25.219Z,1
2022-11-09T18:27:30.401Z,1
2022-11-09T18:29:25.314Z,1
2022-11-09T18:31:28.829Z,1
2022-11-09T18:33:28.780Z,1
2022-11-09T18:35:28.386Z,1
2022-11-09T18:37:25.471Z,1
2022-11-09T18:39:25.435Z,1
2022-11-09T18:41:25.509Z,1
2022-11-09T18:43:25.377Z,1
2022-11-09T18:45:25.622Z,1
2022-11-09T18:47:25.336Z,1
2022-11-09T18:49:25.232Z,1
2022-11-09T18:51:28.781Z,1
2022-11-09T18:53:25.227Z,1
2022-11-09T18:55:25.387Z,1
2022-11-09T18:57:25.404Z,1
2022-11-09T18:59:25.455Z,1
2022-11-09T19:01:28.728Z,1
2022-11-09T19:03:25.526Z,1
2022-11-09T19:05:28.397Z,1
2022-11-09T19:07:28.927Z,1
2022-11-09T19:09:25.194Z,1
2022-11-09T19:11:25.226Z,1
2022-11-09T19:13:25.234Z,1
2022-11-09T19:15:25.457Z,1
2022-11-09T19:17:29.007Z,1
2022-11-09T19:19:28.711Z,1
2022-11-09T19:21:32.068Z,1
2022-11-09T19:23:34.555Z,1
2022-11-09T19:25:28.646Z,1
2022-11-09T19:27:28.534Z,1
2022-11-09T19:29:25.602Z,1
2022-11-09T19:31:25.213Z,1
2022-11-09T19:33:25.207Z,1
2022-11-09T19:35:27.408Z,1
2022-11-09T19:37:28.919Z,1
2022-11-09T19:39:32.636Z,1
2022-11-09T19:41:25.475Z,1
2022-11-09T19:43:28.751Z,1
2022-11-09T19:45:25.483Z,1
2022-11-09T19:47:25.758Z,1
2022-11-09T19:49:28.830Z,1
2022-11-09T19:51:25.508Z,1
2022-11-09T19:53:25.468Z,1
2022-11-09T19:55:25.227Z,1
2022-11-09T19:57:29.014Z,1
2022-11-09T19:59:25.334Z,1
2022-11-09T20:01:25.287Z,1
2022-11-09T20:03:28.825Z,1
2022-11-09T20:05:25.349Z,1
2022-11-09T20:07:31.599Z,1
2022-11-09T20:09:25.254Z,1
2022-11-09T20:11:32.055Z,1
2022-11-09T20:13:25.554Z,1
2022-11-09T20:15:25.516Z,1
2022-11-09T20:17:25.315Z,1
2022-11-09T20:19:25.259Z,1
2022-11-09T20:21:28.909Z,1
2022-11-09T20:23:25.194Z,1
2022-11-09T20:25:25.234Z,1
2022-11-09T20:27:28.134Z,1
2022-11-09T20:29:25.269Z,1
2022-11-09T20:31:25.264Z,1
2022-11-09T20:33:25.519Z,1
2022-11-09T20:35:25.248Z,1
2022-11-09T20:37:25.972Z,1
2022-11-09T20:39:25.471Z,1
2022-11-09T20:41:25.670Z,1
2022-11-09T20:43:28.461Z,1
2022-11-09T20:45:25.388Z,1
2022-11-09T20:47:42.265Z,1
2022-11-09T20:51:25.376Z,1
2022-11-09T20:53:25.586Z,1
2022-11-09T20:55:25.325Z,1
2022-11-09T20:57:25.398Z,1
2022-11-09T20:59:25.624Z,1
2022-11-09T21:01:25.452Z,1
2022-11-09T21:03:25.359Z,1
2022-11-09T21:05:28.871Z,1
2022-11-09T21:07:28.890Z,1
2022-11-09T21:11:25.404Z,1
2022-11-09T21:13:25.535Z,1
2022-11-09T21:15:28.849Z,1
2022-11-09T21:17:25.700Z,1
2022-11-09T21:19:25.228Z,1
2022-11-09T21:21:25.264Z,1
2022-11-09T21:23:25.479Z,1
2022-11-09T21:25:25.248Z,1
2022-11-09T21:27:28.913Z,1
2022-11-09T21:29:25.423Z,1
2022-11-09T21:31:25.417Z,1
2022-11-09T21:33:25.357Z,1
2022-11-09T21:35:25.330Z,1
2022-11-09T21:37:28.852Z,1
2022-11-09T21:39:25.530Z,1
2022-11-09T21:41:30.048Z,1
2022-11-09T21:43:28.351Z,1
2022-11-09T21:45:25.432Z,1
2022-11-09T21:47:25.544Z,1
2022-11-09T21:49:25.259Z,1
2022-11-09T21:51:25.519Z,1
2022-11-09T21:53:25.599Z,1
2022-11-09T21:55:25.272Z,1
2022-11-09T21:57:25.634Z,1
2022-11-09T21:59:25.289Z,1
2022-11-09T22:01:30.104Z,1
2022-11-09T22:03:28.261Z,1
2022-11-09T22:05:28.842Z,1
2022-11-09T22:07:25.501Z,1
2022-11-09T22:09:32.542Z,1
2022-11-09T22:11:28.681Z,1
2022-11-09T22:13:25.415Z,1
2022-11-09T22:15:31.982Z,1
2022-11-09T22:17:25.310Z,1
2022-11-09T22:19:25.452Z,1
2022-11-09T22:21:25.348Z,1
2022-11-09T22:23:28.453Z,1
2022-11-09T22:25:28.729Z,1
2022-11-09T22:27:24.200Z,1
2022-11-09T22:29:25.432Z,1
2022-11-09T22:31:25.220Z,1
2022-11-09T22:33:27.392Z,1
2022-11-09T22:35:25.406Z,1
2022-11-09T22:37:25.238Z,1
2022-11-09T22:39:28.772Z,1
2022-11-09T22:41:28.943Z,1
2022-11-09T22:43:25.291Z,1
2022-11-09T22:45:25.448Z,1
2022-11-09T22:47:25.657Z,1
2022-11-09T22:49:25.465Z,1
2022-11-09T22:51:25.488Z,1
2022-11-09T22:53:25.391Z,1
2022-11-09T22:55:25.319Z,1
2022-11-09T22:57:31.820Z,1
2022-11-09T22:59:28.827Z,1
2022-11-09T23:01:25.245Z,1
2022-11-09T23:03:25.165Z,1
2022-11-09T23:05:25.428Z,1
2022-11-09T23:07:25.429Z,1
2022-11-09T23:09:25.916Z,1
2022-11-09T23:11:25.268Z,1
2022-11-09T23:13:25.244Z,1
2022-11-09T23:15:25.299Z,1
2022-11-09T23:17:28.955Z,1
2022-11-09T23:19:25.168Z,1
2022-11-09T23:23:28.610Z,1
2022-11-09T23:25:25.283Z,1
2022-11-09T23:27:25.435Z,1
2022-11-09T23:29:25.308Z,1
2022-11-09T23:31:31.592Z,1
2022-11-09T23:33:25.423Z,1
2022-11-09T23:35:25.204Z,1
2022-11-09T23:37:25.790Z,1
2022-11-09T23:39:25.406Z,1
2022-11-09T23:41:25.507Z,1
2022-11-09T23:43:25.375Z,1
2022-11-09T23:45:25.289Z,1
2022-11-09T23:47:25.439Z,1
2022-11-09T23:49:31.990Z,1
2022-11-09T23:51:25.171Z,1
2022-11-09T23:53:25.233Z,1
2022-11-09T23:55:25.366Z,1
2022-11-09T23:57:25.174Z,1
2022-11-09T23:59:25.280Z,1
